sensor_id;sensor_type;location;lat;lon;timestamp;pressure;altitude;pressure_sealevel;temperature;humidity
13604;BME280;24578;48.264;11.436;2023-04-27T00:02:36;96203.56;;;5.17;100.00
13604;BME280;24578;48.264;11.436;2023-04-27T00:05:58;96197.47;;;5.20;100.00
13604;BME280;24578;48.264;11.436;2023-04-27T00:09:20;96199.94;;;5.21;100.00
13604;BME280;24578;48.264;11.436;2023-04-27T00:12:42;96201.50;;;5.24;100.00
13604;BME280;24578;48.264;11.436;2023-04-27T00:16:04;96202.19;;;5.27;100.00
13604;BME280;24578;48.264;11.436;2023-04-27T00:19:26;96194.41;;;5.29;100.00
13604;BME280;24578;48.264;11.436;2023-04-27T00:22:48;96186.72;;;5.29;100.00
13604;BME280;24578;48.264;11.436;2023-04-27T00:26:10;96190.94;;;5.30;100.00
13604;BME280;24578;48.264;11.436;2023-04-27T00:29:32;96188.38;;;5.30;100.00
13604;BME280;24578;48.264;11.436;2023-04-27T00:32:54;96192.50;;;5.32;100.00
13604;BME280;24578;48.264;11.436;2023-04-27T00:36:15;96198.47;;;5.33;100.00
13604;BME280;24578;48.264;11.436;2023-04-27T00:39:37;96184.81;;;5.32;100.00
13604;BME280;24578;48.264;11.436;2023-04-27T00:42:59;96181.31;;;5.33;100.00
13604;BME280;24578;48.264;11.436;2023-04-27T00:46:21;96186.31;;;5.37;100.00
13604;BME280;24578;48.264;11.436;2023-04-27T00:49:43;96184.66;;;5.36;100.00
13604;BME280;24578;48.264;11.436;2023-04-27T00:53:05;96185.56;;;5.34;100.00
13604;BME280;24578;48.264;11.436;2023-04-27T00:56:28;96199.91;;;5.39;100.00
13604;BME280;24578;48.264;11.436;2023-04-27T00:59:50;96184.25;;;5.43;100.00
13604;BME280;24578;48.264;11.436;2023-04-27T01:03:11;96185.25;;;5.41;100.00
13604;BME280;24578;48.264;11.436;2023-04-27T01:06:33;96190.28;;;5.42;100.00
13604;BME280;24578;48.264;11.436;2023-04-27T01:09:55;96187.66;;;5.44;100.00
13604;BME280;24578;48.264;11.436;2023-04-27T01:13:17;96183.44;;;5.43;100.00
13604;BME280;24578;48.264;11.436;2023-04-27T01:16:39;96195.41;;;5.42;100.00
13604;BME280;24578;48.264;11.436;2023-04-27T01:20:01;96190.13;;;5.45;100.00
13604;BME280;24578;48.264;11.436;2023-04-27T01:23:23;96196.94;;;5.46;100.00
13604;BME280;24578;48.264;11.436;2023-04-27T01:26:45;96190.88;;;5.47;100.00
13604;BME280;24578;48.264;11.436;2023-04-27T01:30:06;96195.13;;;5.48;100.00
13604;BME280;24578;48.264;11.436;2023-04-27T01:33:28;96185.09;;;5.44;100.00
13604;BME280;24578;48.264;11.436;2023-04-27T01:36:50;96192.19;;;5.39;100.00
13604;BME280;24578;48.264;11.436;2023-04-27T01:40:12;96189.72;;;5.37;100.00
13604;BME280;24578;48.264;11.436;2023-04-27T01:43:35;96202.56;;;5.37;100.00
13604;BME280;24578;48.264;11.436;2023-04-27T01:46:59;96197.47;;;5.36;100.00
13604;BME280;24578;48.264;11.436;2023-04-27T01:50:21;96197.88;;;5.28;100.00
13604;BME280;24578;48.264;11.436;2023-04-27T01:53:43;96204.81;;;5.26;100.00
13604;BME280;24578;48.264;11.436;2023-04-27T01:57:05;96204.00;;;5.25;100.00
13604;BME280;24578;48.264;11.436;2023-04-27T02:00:26;96201.69;;;5.21;100.00
13604;BME280;24578;48.264;11.436;2023-04-27T02:03:48;96198.66;;;5.12;100.00
13604;BME280;24578;48.264;11.436;2023-04-27T02:07:10;96202.47;;;5.05;100.00
13604;BME280;24578;48.264;11.436;2023-04-27T02:10:34;96205.72;;;4.91;100.00
13604;BME280;24578;48.264;11.436;2023-04-27T02:13:56;96206.34;;;4.79;100.00
13604;BME280;24578;48.264;11.436;2023-04-27T02:17:17;96209.41;;;4.68;100.00
13604;BME280;24578;48.264;11.436;2023-04-27T02:20:39;96205.72;;;4.56;100.00
13604;BME280;24578;48.264;11.436;2023-04-27T02:24:01;96212.19;;;4.46;100.00
13604;BME280;24578;48.264;11.436;2023-04-27T02:27:23;96208.44;;;4.35;100.00
13604;BME280;24578;48.264;11.436;2023-04-27T02:30:44;96207.19;;;4.25;100.00
13604;BME280;24578;48.264;11.436;2023-04-27T02:34:06;96210.25;;;4.14;100.00
13604;BME280;24578;48.264;11.436;2023-04-27T02:37:28;96204.81;;;4.03;100.00
13604;BME280;24578;48.264;11.436;2023-04-27T02:40:53;96210.41;;;3.92;100.00
13604;BME280;24578;48.264;11.436;2023-04-27T02:44:18;96212.56;;;3.82;100.00
13604;BME280;24578;48.264;11.436;2023-04-27T02:47:39;96207.97;;;3.71;100.00
13604;BME280;24578;48.264;11.436;2023-04-27T02:51:02;96214.31;;;3.62;100.00
13604;BME280;24578;48.264;11.436;2023-04-27T02:54:25;96218.03;;;3.55;100.00
13604;BME280;24578;48.264;11.436;2023-04-27T02:57:47;96207.31;;;3.47;100.00
13604;BME280;24578;48.264;11.436;2023-04-27T03:01:09;96211.03;;;3.40;100.00
13604;BME280;24578;48.264;11.436;2023-04-27T03:04:31;96218.09;;;3.34;100.00
13604;BME280;24578;48.264;11.436;2023-04-27T03:07:53;96214.13;;;3.27;100.00
13604;BME280;24578;48.264;11.436;2023-04-27T03:11:15;96206.72;;;3.21;100.00
13604;BME280;24578;48.264;11.436;2023-04-27T03:14:37;96220.72;;;3.12;100.00
13604;BME280;24578;48.264;11.436;2023-04-27T03:17:58;96215.03;;;3.05;100.00
13604;BME280;24578;48.264;11.436;2023-04-27T03:21:20;96223.78;;;3.01;100.00
13604;BME280;24578;48.264;11.436;2023-04-27T03:24:42;96226.50;;;2.97;100.00
13604;BME280;24578;48.264;11.436;2023-04-27T03:28:04;96236.03;;;2.93;100.00
13604;BME280;24578;48.264;11.436;2023-04-27T03:31:26;96232.84;;;2.88;100.00
13604;BME280;24578;48.264;11.436;2023-04-27T03:34:47;96232.97;;;2.85;100.00
13604;BME280;24578;48.264;11.436;2023-04-27T03:38:09;96245.88;;;2.82;100.00
13604;BME280;24578;48.264;11.436;2023-04-27T03:41:31;96239.03;;;2.82;100.00
13604;BME280;24578;48.264;11.436;2023-04-27T03:44:53;96240.00;;;2.80;100.00
13604;BME280;24578;48.264;11.436;2023-04-27T03:48:15;96232.44;;;2.77;100.00
13604;BME280;24578;48.264;11.436;2023-04-27T03:51:37;96235.13;;;2.73;100.00
13604;BME280;24578;48.264;11.436;2023-04-27T03:55:02;96247.00;;;2.74;100.00
13604;BME280;24578;48.264;11.436;2023-04-27T03:58:24;96240.22;;;2.73;100.00
13604;BME280;24578;48.264;11.436;2023-04-27T04:01:46;96252.13;;;2.74;100.00
13604;BME280;24578;48.264;11.436;2023-04-27T04:05:08;96253.66;;;2.79;100.00
13604;BME280;24578;48.264;11.436;2023-04-27T04:08:29;96256.19;;;2.80;100.00
13604;BME280;24578;48.264;11.436;2023-04-27T04:11:53;96253.31;;;2.88;100.00
13604;BME280;24578;48.264;11.436;2023-04-27T04:15:15;96257.47;;;2.91;100.00
13604;BME280;24578;48.264;11.436;2023-04-27T04:18:36;96263.97;;;2.98;100.00
13604;BME280;24578;48.264;11.436;2023-04-27T04:21:58;96278.09;;;3.07;100.00
13604;BME280;24578;48.264;11.436;2023-04-27T04:25:20;96276.88;;;3.15;100.00
13604;BME280;24578;48.264;11.436;2023-04-27T04:28:42;96279.88;;;3.25;100.00
13604;BME280;24578;48.264;11.436;2023-04-27T04:32:04;96271.06;;;3.32;100.00
13604;BME280;24578;48.264;11.436;2023-04-27T04:35:27;96276.69;;;3.41;100.00
13604;BME280;24578;48.264;11.436;2023-04-27T04:38:49;96287.09;;;3.57;100.00
13604;BME280;24578;48.264;11.436;2023-04-27T04:42:12;96284.56;;;3.76;100.00
13604;BME280;24578;48.264;11.436;2023-04-27T04:45:34;96286.47;;;3.90;100.00
13604;BME280;24578;48.264;11.436;2023-04-27T04:48:57;96276.31;;;4.07;100.00
13604;BME280;24578;48.264;11.436;2023-04-27T04:52:18;96285.09;;;4.21;100.00
13604;BME280;24578;48.264;11.436;2023-04-27T04:55:40;96287.78;;;4.37;100.00
13604;BME280;24578;48.264;11.436;2023-04-27T04:59:02;96299.91;;;4.52;100.00
13604;BME280;24578;48.264;11.436;2023-04-27T05:02:24;96294.94;;;4.67;100.00
13604;BME280;24578;48.264;11.436;2023-04-27T05:05:46;96293.59;;;4.77;100.00
13604;BME280;24578;48.264;11.436;2023-04-27T05:09:08;96292.66;;;4.97;100.00
13604;BME280;24578;48.264;11.436;2023-04-27T05:12:30;96298.59;;;5.15;100.00
13604;BME280;24578;48.264;11.436;2023-04-27T05:15:52;96281.28;;;5.37;100.00
13604;BME280;24578;48.264;11.436;2023-04-27T05:19:13;96291.06;;;5.63;100.00
13604;BME280;24578;48.264;11.436;2023-04-27T05:22:38;96290.44;;;5.92;100.00
13604;BME280;24578;48.264;11.436;2023-04-27T05:26:00;96287.50;;;6.16;100.00
13604;BME280;24578;48.264;11.436;2023-04-27T05:29:22;96289.03;;;6.36;100.00
13604;BME280;24578;48.264;11.436;2023-04-27T05:32:44;96292.16;;;6.57;100.00
13604;BME280;24578;48.264;11.436;2023-04-27T05:36:06;96296.28;;;6.76;100.00
13604;BME280;24578;48.264;11.436;2023-04-27T05:39:27;96306.25;;;6.96;100.00
13604;BME280;24578;48.264;11.436;2023-04-27T05:42:49;96303.81;;;7.09;100.00
13604;BME280;24578;48.264;11.436;2023-04-27T05:46:14;96311.31;;;7.28;100.00
13604;BME280;24578;48.264;11.436;2023-04-27T05:49:36;96314.75;;;7.43;100.00
13604;BME280;24578;48.264;11.436;2023-04-27T05:52:58;96315.13;;;7.52;100.00
13604;BME280;24578;48.264;11.436;2023-04-27T05:56:20;96297.22;;;7.65;100.00
13604;BME280;24578;48.264;11.436;2023-04-27T05:59:42;96308.31;;;7.80;100.00
13604;BME280;24578;48.264;11.436;2023-04-27T06:03:04;96308.13;;;8.12;100.00
13604;BME280;24578;48.264;11.436;2023-04-27T06:06:26;96311.34;;;8.30;100.00
13604;BME280;24578;48.264;11.436;2023-04-27T06:09:48;96305.88;;;8.49;100.00
13604;BME280;24578;48.264;11.436;2023-04-27T06:13:10;96308.56;;;8.75;100.00
13604;BME280;24578;48.264;11.436;2023-04-27T06:16:32;96314.91;;;8.83;100.00
13604;BME280;24578;48.264;11.436;2023-04-27T06:19:54;96312.28;;;9.11;100.00
13604;BME280;24578;48.264;11.436;2023-04-27T06:23:15;96312.72;;;9.18;100.00
13604;BME280;24578;48.264;11.436;2023-04-27T06:26:37;96312.03;;;9.54;100.00
13604;BME280;24578;48.264;11.436;2023-04-27T06:29:59;96299.94;;;9.81;100.00
13604;BME280;24578;48.264;11.436;2023-04-27T06:33:21;96310.06;;;9.97;100.00
13604;BME280;24578;48.264;11.436;2023-04-27T06:36:42;96319.31;;;10.25;100.00
13604;BME280;24578;48.264;11.436;2023-04-27T06:40:05;96313.72;;;10.44;100.00
13604;BME280;24578;48.264;11.436;2023-04-27T06:43:29;96322.09;;;10.35;100.00
13604;BME280;24578;48.264;11.436;2023-04-27T06:46:51;96320.34;;;10.48;100.00
13604;BME280;24578;48.264;11.436;2023-04-27T06:50:13;96316.31;;;10.69;100.00
13604;BME280;24578;48.264;11.436;2023-04-27T06:53:36;96316.44;;;10.91;100.00
13604;BME280;24578;48.264;11.436;2023-04-27T06:56:58;96308.84;;;11.01;100.00
13604;BME280;24578;48.264;11.436;2023-04-27T07:00:20;96309.47;;;11.16;100.00
13604;BME280;24578;48.264;11.436;2023-04-27T07:03:41;96314.22;;;11.34;100.00
13604;BME280;24578;48.264;11.436;2023-04-27T07:07:03;96314.13;;;11.35;100.00
13604;BME280;24578;48.264;11.436;2023-04-27T07:10:26;96316.25;;;11.41;100.00
13604;BME280;24578;48.264;11.436;2023-04-27T07:13:48;96317.69;;;11.57;100.00
13604;BME280;24578;48.264;11.436;2023-04-27T07:17:09;96313.84;;;11.85;100.00
13604;BME280;24578;48.264;11.436;2023-04-27T07:20:31;96323.34;;;12.21;100.00
13604;BME280;24578;48.264;11.436;2023-04-27T07:23:53;96309.72;;;12.40;91.08
13604;BME280;24578;48.264;11.436;2023-04-27T07:27:15;96307.38;;;12.37;89.53
13604;BME280;24578;48.264;11.436;2023-04-27T07:30:37;96312.50;;;12.71;87.36
13604;BME280;24578;48.264;11.436;2023-04-27T07:33:59;96317.78;;;12.81;80.05
13604;BME280;24578;48.264;11.436;2023-04-27T07:37:21;96318.16;;;13.08;80.21
13604;BME280;24578;48.264;11.436;2023-04-27T07:40:43;96316.38;;;13.42;76.74
13604;BME280;24578;48.264;11.436;2023-04-27T07:44:05;96314.59;;;13.63;76.75
13604;BME280;24578;48.264;11.436;2023-04-27T07:47:27;96303.06;;;14.18;72.59
13604;BME280;24578;48.264;11.436;2023-04-27T07:50:49;96298.75;;;14.99;69.25
13604;BME280;24578;48.264;11.436;2023-04-27T07:54:11;96301.19;;;15.40;66.69
13604;BME280;24578;48.264;11.436;2023-04-27T07:57:33;96301.97;;;15.60;61.89
13604;BME280;24578;48.264;11.436;2023-04-27T08:00:54;96304.44;;;15.51;61.49
13604;BME280;24578;48.264;11.436;2023-04-27T08:04:16;96316.69;;;15.31;58.75
13604;BME280;24578;48.264;11.436;2023-04-27T08:07:39;96313.41;;;14.90;58.44
13604;BME280;24578;48.264;11.436;2023-04-27T08:11:00;96317.25;;;14.96;59.63
13604;BME280;24578;48.264;11.436;2023-04-27T08:14:22;96309.97;;;15.09;58.02
13604;BME280;24578;48.264;11.436;2023-04-27T08:17:44;96312.28;;;15.42;57.40
13604;BME280;24578;48.264;11.436;2023-04-27T08:21:07;96316.69;;;15.41;54.72
13604;BME280;24578;48.264;11.436;2023-04-27T08:24:29;96321.75;;;15.52;55.73
13604;BME280;24578;48.264;11.436;2023-04-27T08:27:51;96318.94;;;15.74;53.59
13604;BME280;24578;48.264;11.436;2023-04-27T08:31:12;96323.72;;;15.98;51.13
13604;BME280;24578;48.264;11.436;2023-04-27T08:34:34;96309.88;;;15.78;53.45
13604;BME280;24578;48.264;11.436;2023-04-27T08:37:56;96309.53;;;16.66;49.48
13604;BME280;24578;48.264;11.436;2023-04-27T08:41:22;96307.56;;;17.85;47.74
13604;BME280;24578;48.264;11.436;2023-04-27T08:44:44;96295.63;;;18.60;42.18
13604;BME280;24578;48.264;11.436;2023-04-27T08:48:05;96297.22;;;18.96;38.06
13604;BME280;24578;48.264;11.436;2023-04-27T08:51:27;96295.09;;;18.99;36.95
13604;BME280;24578;48.264;11.436;2023-04-27T08:54:49;96290.66;;;19.66;36.46
13604;BME280;24578;48.264;11.436;2023-04-27T08:58:11;96296.41;;;19.53;34.68
13604;BME280;24578;48.264;11.436;2023-04-27T09:01:32;96294.47;;;19.14;36.25
13604;BME280;24578;48.264;11.436;2023-04-27T09:04:54;96292.16;;;20.57;33.40
13604;BME280;24578;48.264;11.436;2023-04-27T09:08:17;96282.41;;;21.20;32.94
13604;BME280;24578;48.264;11.436;2023-04-27T09:11:38;96286.34;;;21.63;32.41
13604;BME280;24578;48.264;11.436;2023-04-27T09:15:02;96276.75;;;22.15;31.11
13604;BME280;24578;48.264;11.436;2023-04-27T09:18:25;96281.97;;;22.60;30.16
13604;BME280;24578;48.264;11.436;2023-04-27T09:21:47;96276.78;;;23.10;29.78
13604;BME280;24578;48.264;11.436;2023-04-27T09:25:09;96269.75;;;22.95;28.45
13604;BME280;24578;48.264;11.436;2023-04-27T09:28:31;96276.66;;;21.93;30.20
13604;BME280;24578;48.264;11.436;2023-04-27T09:31:54;96261.78;;;22.89;30.02
13604;BME280;24578;48.264;11.436;2023-04-27T09:35:24;96255.97;;;24.42;28.40
13604;BME280;24578;48.264;11.436;2023-04-27T09:38:46;96254.69;;;25.27;25.36
13604;BME280;24578;48.264;11.436;2023-04-27T09:42:10;96252.03;;;25.81;26.49
13604;BME280;24578;48.264;11.436;2023-04-27T09:45:32;96244.59;;;26.23;24.51
13604;BME280;24578;48.264;11.436;2023-04-27T09:48:55;96237.56;;;27.39;23.62
13604;BME280;24578;48.264;11.436;2023-04-27T09:52:18;96237.06;;;26.98;23.31
13604;BME280;24578;48.264;11.436;2023-04-27T09:56:15;96239.38;;;27.45;22.59
13604;BME280;24578;48.264;11.436;2023-04-27T10:03:48;96245.19;;;26.71;23.84
13604;BME280;24578;48.264;11.436;2023-04-27T10:07:13;96232.94;;;26.31;24.88
13604;BME280;24578;48.264;11.436;2023-04-27T10:10:46;96231.22;;;26.43;24.67
13604;BME280;24578;48.264;11.436;2023-04-27T10:14:16;96236.16;;;25.07;24.58
13604;BME280;24578;48.264;11.436;2023-04-27T10:17:47;96230.22;;;23.02;27.12
13604;BME280;24578;48.264;11.436;2023-04-27T10:21:10;96236.63;;;21.59;28.96
13604;BME280;24578;48.264;11.436;2023-04-27T10:28:01;96233.19;;;22.34;30.84
13604;BME280;24578;48.264;11.436;2023-04-27T10:31:27;96227.22;;;23.55;28.14
13604;BME280;24578;48.264;11.436;2023-04-27T10:34:50;96229.97;;;24.11;26.34
13604;BME280;24578;48.264;11.436;2023-04-27T10:38:18;96224.53;;;23.84;26.76
13604;BME280;24578;48.264;11.436;2023-04-27T10:41:55;96226.72;;;24.09;26.92
13604;BME280;24578;48.264;11.436;2023-04-27T10:45:27;96213.03;;;24.54;27.07
13604;BME280;24578;48.264;11.436;2023-04-27T10:48:49;96224.72;;;24.93;25.86
13604;BME280;24578;48.264;11.436;2023-04-27T10:52:10;96219.47;;;25.47;26.18
13604;BME280;24578;48.264;11.436;2023-04-27T10:55:34;96223.31;;;25.31;25.70
13604;BME280;24578;48.264;11.436;2023-04-27T10:59:01;96224.16;;;25.18;26.29
13604;BME280;24578;48.264;11.436;2023-04-27T11:02:26;96222.13;;;23.82;27.55
13604;BME280;24578;48.264;11.436;2023-04-27T11:06:01;96224.41;;;22.63;28.56
13604;BME280;24578;48.264;11.436;2023-04-27T11:09:25;96219.22;;;21.88;30.35
13604;BME280;24578;48.264;11.436;2023-04-27T11:12:47;96228.94;;;22.70;29.28
13604;BME280;24578;48.264;11.436;2023-04-27T11:16:09;96222.94;;;24.25;28.87
13604;BME280;24578;48.264;11.436;2023-04-27T11:19:31;96223.13;;;25.12;26.18
13604;BME280;24578;48.264;11.436;2023-04-27T11:22:53;96213.13;;;25.68;24.71
13604;BME280;24578;48.264;11.436;2023-04-27T11:26:20;96206.66;;;26.09;24.86
13604;BME280;24578;48.264;11.436;2023-04-27T11:29:43;96211.66;;;24.02;25.47
13604;BME280;24578;48.264;11.436;2023-04-27T11:33:07;96229.59;;;22.57;29.62
13604;BME280;24578;48.264;11.436;2023-04-27T11:36:28;96227.09;;;22.48;29.49
13604;BME280;24578;48.264;11.436;2023-04-27T11:39:51;96229.38;;;22.95;28.95
13604;BME280;24578;48.264;11.436;2023-04-27T11:43:15;96223.16;;;23.03;29.13
13604;BME280;24578;48.264;11.436;2023-04-27T11:46:37;96225.00;;;23.09;29.73
13604;BME280;24578;48.264;11.436;2023-04-27T11:50:01;96221.63;;;23.44;29.78
13604;BME280;24578;48.264;11.436;2023-04-27T11:53:33;96225.25;;;23.64;30.31
13604;BME280;24578;48.264;11.436;2023-04-27T11:57:03;96222.63;;;23.71;27.91
13604;BME280;24578;48.264;11.436;2023-04-27T12:00:26;96219.81;;;23.72;30.68
13604;BME280;24578;48.264;11.436;2023-04-27T12:03:48;96214.97;;;24.18;28.52
13604;BME280;24578;48.264;11.436;2023-04-27T12:07:09;96218.88;;;23.23;27.82
13604;BME280;24578;48.264;11.436;2023-04-27T12:10:32;96222.75;;;22.62;30.61
13604;BME280;24578;48.264;11.436;2023-04-27T12:13:54;96216.97;;;22.37;31.69
13604;BME280;24578;48.264;11.436;2023-04-27T12:17:17;96226.75;;;22.21;31.18
13604;BME280;24578;48.264;11.436;2023-04-27T12:20:39;96217.91;;;22.66;30.33
13604;BME280;24578;48.264;11.436;2023-04-27T12:24:01;96216.09;;;23.10;28.56
13604;BME280;24578;48.264;11.436;2023-04-27T12:27:23;96216.69;;;23.27;29.12
13604;BME280;24578;48.264;11.436;2023-04-27T12:30:44;96217.78;;;22.53;30.42
13604;BME280;24578;48.264;11.436;2023-04-27T12:34:06;96213.78;;;21.75;30.88
13604;BME280;24578;48.264;11.436;2023-04-27T12:37:28;96218.63;;;21.71;31.98
13604;BME280;24578;48.264;11.436;2023-04-27T12:40:50;96225.53;;;20.96;32.68
13604;BME280;24578;48.264;11.436;2023-04-27T12:44:12;96222.28;;;21.32;32.86
13604;BME280;24578;48.264;11.436;2023-04-27T12:47:34;96224.53;;;21.20;32.96
13604;BME280;24578;48.264;11.436;2023-04-27T12:50:56;96220.22;;;20.81;33.40
13604;BME280;24578;48.264;11.436;2023-04-27T12:54:18;96220.53;;;21.24;32.78
13604;BME280;24578;48.264;11.436;2023-04-27T12:57:40;96218.56;;;22.90;31.08
13604;BME280;24578;48.264;11.436;2023-04-27T13:01:01;96203.22;;;23.92;28.98
13604;BME280;24578;48.264;11.436;2023-04-27T13:04:23;96206.81;;;23.78;29.58
13604;BME280;24578;48.264;11.436;2023-04-27T13:07:45;96198.19;;;23.05;30.97
13604;BME280;24578;48.264;11.436;2023-04-27T13:11:07;96204.22;;;22.56;30.77
13604;BME280;24578;48.264;11.436;2023-04-27T13:14:28;96199.72;;;21.98;31.12
13604;BME280;24578;48.264;11.436;2023-04-27T13:17:52;96205.66;;;21.32;33.46
13604;BME280;24578;48.264;11.436;2023-04-27T13:21:16;96213.91;;;20.90;32.41
13604;BME280;24578;48.264;11.436;2023-04-27T13:24:38;96214.16;;;20.49;34.13
13604;BME280;24578;48.264;11.436;2023-04-27T13:27:59;96215.16;;;19.68;36.48
13604;BME280;24578;48.264;11.436;2023-04-27T13:31:21;96205.19;;;19.55;35.85
13604;BME280;24578;48.264;11.436;2023-04-27T13:34:43;96209.22;;;19.83;34.83
13604;BME280;24578;48.264;11.436;2023-04-27T13:38:05;96202.94;;;20.00;35.88
13604;BME280;24578;48.264;11.436;2023-04-27T13:41:27;96201.91;;;20.10;35.67
13604;BME280;24578;48.264;11.436;2023-04-27T13:44:49;96200.97;;;20.57;33.54
13604;BME280;24578;48.264;11.436;2023-04-27T13:48:10;96199.59;;;20.15;35.73
13604;BME280;24578;48.264;11.436;2023-04-27T13:51:33;96194.25;;;20.31;34.32
13604;BME280;24578;48.264;11.436;2023-04-27T13:54:54;96189.44;;;20.35;34.10
13604;BME280;24578;48.264;11.436;2023-04-27T13:58:16;96196.34;;;20.36;34.21
13604;BME280;24578;48.264;11.436;2023-04-27T14:01:38;96187.50;;;20.29;34.18
13604;BME280;24578;48.264;11.436;2023-04-27T14:05:00;96193.97;;;19.70;36.51
13604;BME280;24578;48.264;11.436;2023-04-27T14:08:22;96191.63;;;19.10;37.96
13604;BME280;24578;48.264;11.436;2023-04-27T14:11:44;96196.22;;;18.67;38.32
13604;BME280;24578;48.264;11.436;2023-04-27T14:15:06;96177.88;;;19.08;37.83
13604;BME280;24578;48.264;11.436;2023-04-27T14:18:27;96179.44;;;19.51;35.81
13604;BME280;24578;48.264;11.436;2023-04-27T14:21:49;96178.31;;;20.24;35.74
13604;BME280;24578;48.264;11.436;2023-04-27T14:25:11;96179.25;;;21.40;33.92
13604;BME280;24578;48.264;11.436;2023-04-27T14:28:33;96167.66;;;21.79;32.55
13604;BME280;24578;48.264;11.436;2023-04-27T14:31:55;96167.56;;;21.72;32.50
13604;BME280;24578;48.264;11.436;2023-04-27T14:35:18;96173.91;;;21.48;32.75
13604;BME280;24578;48.264;11.436;2023-04-27T14:38:41;96169.41;;;21.04;34.52
13604;BME280;24578;48.264;11.436;2023-04-27T14:42:02;96170.31;;;21.11;33.23
13604;BME280;24578;48.264;11.436;2023-04-27T14:45:25;96164.75;;;21.59;32.75
13604;BME280;24578;48.264;11.436;2023-04-27T14:48:47;96165.34;;;22.06;31.57
13604;BME280;24578;48.264;11.436;2023-04-27T14:52:09;96165.69;;;21.13;33.57
13604;BME280;24578;48.264;11.436;2023-04-27T14:55:31;96163.53;;;21.17;33.77
13604;BME280;24578;48.264;11.436;2023-04-27T14:58:53;96166.78;;;21.04;32.61
13604;BME280;24578;48.264;11.436;2023-04-27T15:02:15;96169.84;;;20.69;33.46
13604;BME280;24578;48.264;11.436;2023-04-27T15:05:39;96176.66;;;20.32;34.37
13604;BME280;24578;48.264;11.436;2023-04-27T15:09:00;96168.41;;;20.12;35.84
13604;BME280;24578;48.264;11.436;2023-04-27T15:12:22;96172.81;;;20.11;35.50
13604;BME280;24578;48.264;11.436;2023-04-27T15:15:44;96171.59;;;20.22;33.66
13604;BME280;24578;48.264;11.436;2023-04-27T15:19:07;96170.22;;;19.63;35.18
13604;BME280;24578;48.264;11.436;2023-04-27T15:22:28;96169.78;;;19.35;36.25
13604;BME280;24578;48.264;11.436;2023-04-27T15:25:54;96172.13;;;19.21;36.87
13604;BME280;24578;48.264;11.436;2023-04-27T15:29:16;96160.66;;;18.56;37.29
13604;BME280;24578;48.264;11.436;2023-04-27T15:32:40;96167.69;;;18.47;38.61
13604;BME280;24578;48.264;11.436;2023-04-27T15:36:02;96160.13;;;18.28;38.73
13604;BME280;24578;48.264;11.436;2023-04-27T15:39:24;96164.31;;;18.04;39.84
13604;BME280;24578;48.264;11.436;2023-04-27T15:42:45;96163.94;;;17.90;41.16
13604;BME280;24578;48.264;11.436;2023-04-27T15:46:07;96160.84;;;17.95;40.40
13604;BME280;24578;48.264;11.436;2023-04-27T15:49:29;96165.16;;;17.70;41.45
13604;BME280;24578;48.264;11.436;2023-04-27T15:52:51;96176.75;;;17.59;41.25
13604;BME280;24578;48.264;11.436;2023-04-27T15:56:13;96171.50;;;17.59;42.52
13604;BME280;24578;48.264;11.436;2023-04-27T15:59:36;96169.38;;;17.62;42.37
13604;BME280;24578;48.264;11.436;2023-04-27T16:02:57;96168.50;;;17.88;41.23
13604;BME280;24578;48.264;11.436;2023-04-27T16:06:19;96173.72;;;17.80;41.66
13604;BME280;24578;48.264;11.436;2023-04-27T16:09:41;96162.88;;;17.67;42.53
13604;BME280;24578;48.264;11.436;2023-04-27T16:13:03;96164.81;;;17.64;43.06
13604;BME280;24578;48.264;11.436;2023-04-27T16:16:25;96155.34;;;17.63;40.51
13604;BME280;24578;48.264;11.436;2023-04-27T16:19:47;96154.00;;;17.25;41.52
13604;BME280;24578;48.264;11.436;2023-04-27T16:23:09;96161.56;;;17.36;41.38
13604;BME280;24578;48.264;11.436;2023-04-27T16:26:30;96153.25;;;17.41;42.78
13604;BME280;24578;48.264;11.436;2023-04-27T16:29:53;96157.03;;;17.46;41.47
13604;BME280;24578;48.264;11.436;2023-04-27T16:33:14;96159.22;;;17.51;42.79
13604;BME280;24578;48.264;11.436;2023-04-27T16:36:36;96151.19;;;17.53;41.89
13604;BME280;24578;48.264;11.436;2023-04-27T16:39:58;96150.69;;;17.49;42.18
13604;BME280;24578;48.264;11.436;2023-04-27T16:43:22;96153.81;;;17.61;41.47
13604;BME280;24578;48.264;11.436;2023-04-27T16:46:44;96151.59;;;17.40;41.86
13604;BME280;24578;48.264;11.436;2023-04-27T16:50:06;96153.06;;;17.08;42.52
13604;BME280;24578;48.264;11.436;2023-04-27T16:53:28;96150.97;;;16.93;43.05
13604;BME280;24578;48.264;11.436;2023-04-27T16:56:49;96154.53;;;16.48;45.73
13604;BME280;24578;48.264;11.436;2023-04-27T17:00:12;96158.72;;;16.40;44.23
13604;BME280;24578;48.264;11.436;2023-04-27T17:03:34;96156.25;;;16.21;44.54
13604;BME280;24578;48.264;11.436;2023-04-27T17:06:56;96152.72;;;16.12;44.94
13604;BME280;24578;48.264;11.436;2023-04-27T17:10:18;96149.50;;;16.00;45.76
13604;BME280;24578;48.264;11.436;2023-04-27T17:13:39;96150.41;;;15.81;46.07
13604;BME280;24578;48.264;11.436;2023-04-27T17:17:01;96150.66;;;15.60;47.43
13604;BME280;24578;48.264;11.436;2023-04-27T17:20:23;96147.38;;;15.58;47.70
13604;BME280;24578;48.264;11.436;2023-04-27T17:23:45;96142.63;;;15.43;49.41
13604;BME280;24578;48.264;11.436;2023-04-27T17:27:07;96149.00;;;15.31;50.82
13604;BME280;24578;48.264;11.436;2023-04-27T17:30:29;96149.72;;;15.23;50.09
13604;BME280;24578;48.264;11.436;2023-04-27T17:33:50;96147.50;;;15.18;48.38
13604;BME280;24578;48.264;11.436;2023-04-27T17:37:12;96142.47;;;15.07;47.53
13604;BME280;24578;48.264;11.436;2023-04-27T17:40:35;96142.09;;;15.02;48.88
13604;BME280;24578;48.264;11.436;2023-04-27T17:43:57;96148.53;;;14.98;49.99
13604;BME280;24578;48.264;11.436;2023-04-27T17:47:19;96154.97;;;14.64;50.68